createdAt,value
2019-01-27T00:01:02.518Z,3.20
2019-01-27T00:03:30.187Z,3.20
2019-01-27T00:05:57.866Z,3.20
2019-01-27T00:08:25.574Z,3.20
2019-01-27T00:10:53.233Z,3.20
2019-01-27T00:13:20.849Z,3.20
2019-01-27T00:15:48.757Z,3.30
2019-01-27T00:18:17.349Z,3.20
2019-01-27T00:20:44.971Z,3.30
2019-01-27T00:23:12.770Z,3.30
2019-01-27T00:25:40.421Z,3.30
2019-01-27T00:28:08.123Z,3.30
2019-01-27T00:30:36.170Z,3.40
2019-01-27T00:33:06.087Z,3.40
2019-01-27T00:35:34.163Z,3.30
2019-01-27T00:38:03.333Z,3.40
2019-01-27T00:40:31.072Z,3.40
2019-01-27T00:42:58.865Z,3.40
2019-01-27T00:45:29.678Z,3.50
2019-01-27T00:47:57.538Z,3.50
2019-01-27T00:50:25.145Z,3.50
2019-01-27T00:52:52.979Z,3.50
2019-01-27T00:55:20.995Z,3.50
2019-01-27T00:57:49.372Z,3.50
2019-01-27T01:00:22.232Z,3.50
2019-01-27T01:02:49.934Z,3.50
2019-01-27T01:05:17.731Z,3.50
2019-01-27T01:07:45.839Z,3.50
2019-01-27T01:10:15.640Z,3.60
2019-01-27T01:12:43.295Z,3.60
2019-01-27T01:15:11.259Z,3.60
2019-01-27T01:17:44.034Z,3.60
2019-01-27T01:20:14.585Z,3.60
2019-01-27T01:22:42.564Z,3.60
2019-01-27T01:25:14.081Z,3.60
2019-01-27T01:27:41.937Z,3.70
2019-01-27T01:30:12.737Z,3.60
2019-01-27T01:32:42.205Z,3.70
2019-01-27T01:35:12.931Z,3.70
2019-01-27T01:37:40.478Z,3.70
2019-01-27T01:40:11.847Z,3.70
2019-01-27T01:42:39.786Z,3.70
2019-01-27T01:45:30.145Z,3.70
2019-01-27T01:47:58.078Z,3.70
2019-01-27T01:50:26.252Z,3.80
2019-01-27T01:52:54.000Z,3.80
2019-01-27T01:55:22.080Z,3.70
2019-01-27T01:57:49.739Z,3.70
2019-01-27T02:00:19.327Z,3.70
2019-01-27T02:02:47.309Z,3.60
2019-01-27T02:05:15.874Z,3.70
2019-01-27T02:07:43.693Z,3.70
2019-01-27T02:10:12.754Z,3.70
2019-01-27T02:12:40.404Z,3.70
2019-01-27T02:15:51.442Z,3.70
2019-01-27T02:18:19.174Z,3.60
2019-01-27T02:20:46.765Z,3.60
2019-01-27T02:23:14.552Z,3.60
2019-01-27T02:25:42.289Z,3.60
2019-01-27T02:28:10.544Z,3.60
2019-01-27T02:30:38.195Z,3.60
2019-01-27T02:33:05.826Z,3.60
2019-01-27T02:35:33.419Z,3.60
2019-01-27T02:38:01.181Z,3.60
2019-01-27T02:40:28.790Z,3.60
2019-01-27T02:42:56.389Z,3.60
2019-01-27T02:45:24.768Z,3.70
2019-01-27T02:47:52.755Z,3.80
2019-01-27T02:50:20.820Z,3.70
2019-01-27T02:52:49.019Z,3.70
2019-01-27T02:55:17.078Z,3.70
2019-01-27T02:57:44.749Z,3.70
2019-01-27T03:00:12.822Z,3.70
2019-01-27T03:02:40.400Z,3.70
2019-01-27T03:05:20.552Z,3.70
2019-01-27T03:07:48.177Z,3.70
2019-01-27T03:10:16.051Z,3.70
2019-01-27T03:12:43.762Z,3.70
2019-01-27T03:15:11.692Z,3.80
2019-01-27T03:17:39.270Z,3.80
2019-01-27T03:20:09.058Z,3.80
2019-01-27T03:22:36.697Z,3.80
2019-01-27T03:25:05.437Z,3.90
2019-01-27T03:27:33.183Z,3.90
2019-01-27T03:30:00.788Z,3.90
2019-01-27T03:32:28.419Z,3.90
2019-01-27T03:34:56.137Z,4.00
2019-01-27T03:37:23.796Z,4.00
2019-01-27T03:39:51.403Z,4.00
2019-01-27T03:42:19.071Z,4.00
2019-01-27T03:44:46.651Z,3.90
2019-01-27T03:47:14.362Z,3.90
2019-01-27T03:49:42.149Z,3.90
2019-01-27T03:52:10.058Z,3.90
2019-01-27T03:54:43.107Z,3.90
2019-01-27T03:57:10.927Z,3.90
2019-01-27T03:59:38.557Z,4.00
2019-01-27T04:02:08.229Z,3.90
2019-01-27T04:04:36.271Z,3.90
2019-01-27T04:07:06.683Z,3.90
2019-01-27T04:09:34.365Z,3.90
2019-01-27T04:12:04.277Z,3.90
2019-01-27T04:14:32.036Z,3.90
2019-01-27T04:16:59.720Z,3.90
2019-01-27T04:19:27.440Z,3.90
2019-01-27T04:21:55.154Z,3.90
2019-01-27T04:24:22.830Z,3.90
2019-01-27T04:26:50.948Z,3.90
2019-01-27T04:29:18.569Z,3.90
2019-01-27T04:31:47.772Z,3.90
2019-01-27T04:34:17.269Z,3.90
2019-01-27T04:36:44.849Z,3.90
2019-01-27T04:39:12.486Z,3.80
2019-01-27T04:41:40.196Z,3.80
2019-01-27T04:44:07.834Z,3.80
2019-01-27T04:46:35.457Z,3.80
2019-01-27T04:49:03.360Z,3.80
2019-01-27T04:51:31.352Z,3.80
2019-01-27T04:53:59.284Z,3.80
2019-01-27T04:56:27.000Z,3.80
2019-01-27T04:58:56.209Z,3.70
2019-01-27T05:01:26.826Z,3.70
2019-01-27T05:04:01.971Z,3.70
2019-01-27T05:06:29.653Z,3.70
2019-01-27T05:08:57.336Z,3.70
2019-01-27T05:11:25.361Z,3.60
2019-01-27T05:13:53.085Z,3.60
2019-01-27T05:16:21.914Z,3.60
2019-01-27T05:18:50.271Z,3.60
2019-01-27T05:21:17.922Z,3.60
2019-01-27T05:23:45.546Z,3.60
2019-01-27T05:26:13.357Z,3.60
2019-01-27T05:28:41.031Z,3.60
2019-01-27T05:31:11.791Z,3.50
2019-01-27T05:33:39.738Z,3.50
2019-01-27T05:36:10.911Z,3.50
2019-01-27T05:38:38.557Z,3.50
2019-01-27T05:41:11.173Z,3.50
2019-01-27T05:43:40.113Z,3.50
2019-01-27T05:46:08.304Z,3.50
2019-01-27T05:48:38.644Z,3.40
2019-01-27T05:51:07.917Z,3.40
2019-01-27T05:53:37.960Z,3.40
2019-01-27T05:56:05.903Z,3.40
2019-01-27T05:58:34.580Z,3.40
2019-01-27T06:01:02.461Z,3.30
2019-01-27T06:03:30.183Z,3.40
2019-01-27T06:05:57.980Z,3.40
2019-01-27T06:08:26.725Z,3.40
2019-01-27T06:10:54.411Z,3.40
2019-01-27T06:13:22.010Z,3.40
2019-01-27T06:15:52.887Z,3.40
2019-01-27T06:18:21.957Z,3.40
2019-01-27T06:20:50.746Z,3.40
2019-01-27T06:23:20.528Z,3.40
2019-01-27T06:25:48.416Z,3.40
2019-01-27T06:28:19.009Z,3.50
2019-01-27T06:30:46.887Z,3.50
2019-01-27T06:33:24.893Z,3.40
2019-01-27T06:35:54.838Z,3.40
2019-01-27T06:38:25.338Z,3.50
2019-01-27T06:40:54.361Z,3.50
2019-01-27T06:43:24.791Z,3.50
2019-01-27T06:45:59.311Z,3.50
2019-01-27T06:48:28.120Z,3.60
2019-01-27T06:50:56.093Z,3.50
2019-01-27T06:53:23.949Z,3.50
2019-01-27T06:55:53.540Z,3.50
2019-01-27T06:58:23.213Z,3.60
2019-01-27T07:01:17.206Z,3.60
2019-01-27T07:03:57.329Z,3.60
2019-01-27T07:07:01.074Z,3.60
2019-01-27T07:09:56.379Z,3.60
2019-01-27T07:12:34.764Z,3.70
2019-01-27T07:15:21.291Z,3.70
2019-01-27T07:18:16.498Z,3.70
2019-01-27T07:21:00.135Z,3.70
2019-01-27T07:23:50.315Z,3.70
2019-01-27T07:26:52.159Z,3.70
2019-01-27T07:29:37.785Z,3.70
2019-01-27T07:32:25.093Z,3.70
2019-01-27T07:35:15.234Z,3.70
2019-01-27T07:37:49.030Z,3.80
2019-01-27T07:40:45.210Z,3.80
2019-01-27T07:43:30.864Z,3.70
2019-01-27T07:46:04.097Z,3.70
2019-01-27T07:48:54.661Z,3.70
2019-01-27T07:51:47.519Z,3.70
2019-01-27T07:54:33.620Z,3.70
2019-01-27T07:57:22.156Z,3.70
2019-01-27T07:59:59.670Z,3.70
2019-01-27T08:02:52.697Z,3.70
2019-01-27T08:05:28.794Z,3.80
2019-01-27T08:08:14.816Z,3.80
2019-01-27T08:11:01.056Z,3.80
2019-01-27T08:14:00.163Z,3.80
2019-01-27T08:16:55.148Z,3.90
2019-01-27T08:19:32.435Z,3.90
2019-01-27T08:22:25.531Z,3.90
2019-01-27T08:25:02.511Z,3.90
2019-01-27T08:27:58.340Z,3.90
2019-01-27T08:30:45.855Z,4.00
2019-01-27T08:33:35.867Z,4.00
2019-01-27T08:36:15.146Z,4.10
2019-01-27T08:38:49.621Z,4.10
2019-01-27T08:41:39.705Z,4.10
2019-01-27T08:44:32.650Z,4.10
2019-01-27T08:47:03.200Z,4.20
2019-01-27T08:49:34.469Z,4.30
2019-01-27T08:52:05.059Z,4.40
2019-01-27T08:54:39.162Z,4.40
2019-01-27T08:57:06.887Z,4.40
2019-01-27T08:59:34.680Z,4.40
2019-01-27T09:02:34.359Z,4.40
2019-01-27T09:05:22.257Z,4.50
2019-01-27T09:07:55.431Z,4.50
2019-01-27T09:10:41.368Z,4.60
2019-01-27T09:13:29.670Z,4.60
2019-01-27T09:16:25.833Z,4.60
2019-01-27T09:19:21.842Z,4.70
2019-01-27T09:22:19.900Z,4.70
2019-01-27T09:25:22.017Z,4.80
2019-01-27T09:28:12.425Z,4.80
2019-01-27T09:31:05.261Z,4.80
2019-01-27T09:33:52.607Z,4.70
2019-01-27T09:36:39.424Z,4.80
2019-01-27T09:39:28.021Z,4.80
2019-01-27T09:42:16.693Z,4.90
2019-01-27T09:45:19.252Z,5.00
2019-01-27T09:48:00.298Z,5.00
2019-01-27T09:50:47.831Z,4.90
2019-01-27T09:53:22.826Z,5.00
2019-01-27T09:56:16.220Z,5.10
2019-01-27T09:59:03.407Z,5.20
2019-01-27T10:02:02.233Z,5.30
2019-01-27T10:04:58.727Z,5.50
2019-01-27T10:08:03.946Z,5.40
2019-01-27T10:10:49.769Z,5.40
2019-01-27T10:13:35.011Z,5.50
2019-01-27T10:16:25.405Z,5.50
2019-01-27T10:19:15.220Z,5.60
2019-01-27T10:21:54.451Z,5.60
2019-01-27T10:24:47.693Z,5.60
2019-01-27T10:27:37.821Z,5.60
2019-01-27T10:30:45.197Z,5.60
2019-01-27T10:33:31.699Z,5.60
2019-01-27T10:36:17.851Z,5.60
2019-01-27T10:39:06.441Z,5.50
2019-01-27T10:41:39.342Z,5.50
2019-01-27T10:44:32.208Z,5.50
2019-01-27T10:47:19.772Z,5.40
2019-01-27T10:50:09.508Z,5.50
2019-01-27T10:52:56.609Z,5.50
2019-01-27T10:55:35.249Z,5.50
2019-01-27T10:58:34.438Z,5.40
2019-01-27T11:01:20.202Z,5.40
2019-01-27T11:04:11.887Z,5.30
2019-01-27T11:06:57.693Z,5.40
2019-01-27T11:09:47.964Z,5.40
2019-01-27T11:12:33.669Z,5.40
2019-01-27T11:15:26.670Z,5.50
2019-01-27T11:18:20.370Z,5.50
2019-01-27T11:21:01.985Z,5.50
2019-01-27T11:23:50.370Z,5.60
2019-01-27T11:26:35.973Z,5.60
2019-01-27T11:29:24.284Z,5.50
2019-01-27T11:32:17.001Z,5.60
2019-01-27T11:35:13.005Z,5.70
2019-01-27T11:38:00.561Z,5.80
2019-01-27T11:40:54.467Z,5.70
2019-01-27T11:43:37.069Z,5.60
2019-01-27T11:46:16.815Z,5.50
2019-01-27T11:48:58.557Z,5.40
2019-01-27T11:51:54.578Z,5.50
2019-01-27T11:54:22.572Z,5.40
2019-01-27T11:56:50.283Z,5.40
2019-01-27T11:59:18.445Z,5.40
2019-01-27T12:01:55.383Z,5.50
2019-01-27T12:04:23.242Z,5.50
2019-01-27T12:06:53.879Z,5.40
2019-01-27T12:09:21.630Z,5.40
2019-01-27T12:11:49.222Z,5.30
2019-01-27T12:14:17.913Z,5.40
2019-01-27T12:16:46.073Z,5.30
2019-01-27T12:19:14.037Z,5.40
2019-01-27T12:21:41.941Z,5.40
2019-01-27T12:24:16.304Z,5.50
2019-01-27T12:26:47.015Z,5.50
2019-01-27T12:29:15.118Z,5.40
2019-01-27T12:31:43.085Z,5.30
2019-01-27T12:34:10.848Z,5.40
2019-01-27T12:36:47.253Z,5.40
2019-01-27T12:39:15.063Z,5.50
2019-01-27T12:41:46.183Z,5.50
2019-01-27T12:44:14.282Z,5.50
2019-01-27T12:46:42.169Z,5.70
2019-01-27T12:49:09.752Z,5.90
2019-01-27T12:51:37.367Z,5.80
2019-01-27T12:54:05.276Z,5.80
2019-01-27T12:56:35.190Z,5.70
2019-01-27T12:59:08.890Z,6.00
2019-01-27T13:01:40.310Z,5.90
2019-01-27T13:04:08.129Z,6.10
2019-01-27T13:06:36.131Z,6.10
2019-01-27T13:09:06.836Z,6.10
2019-01-27T13:11:34.839Z,6.30
2019-01-27T13:14:02.559Z,6.10
2019-01-27T13:16:30.373Z,6.10
2019-01-27T13:18:58.548Z,6.10
2019-01-27T13:21:29.175Z,5.90
2019-01-27T13:23:56.852Z,6.00
2019-01-27T13:26:30.691Z,6.20
2019-01-27T13:28:58.447Z,6.20
2019-01-27T13:31:26.644Z,6.10
2019-01-27T13:33:54.491Z,6.10
2019-01-27T13:36:24.099Z,6.00
2019-01-27T13:38:51.734Z,5.80
2019-01-27T13:41:19.974Z,5.60
2019-01-27T13:43:48.768Z,5.70
2019-01-27T13:46:16.323Z,5.70
2019-01-27T13:48:44.169Z,5.50
2019-01-27T13:51:11.912Z,5.40
2019-01-27T13:53:48.382Z,5.20
2019-01-27T13:56:18.736Z,5.00
2019-01-27T13:58:46.362Z,5.00
2019-01-27T14:01:14.413Z,5.00
2019-01-27T14:03:44.259Z,5.00
2019-01-27T14:06:16.472Z,5.00
2019-01-27T14:08:55.174Z,4.90
2019-01-27T14:11:23.011Z,4.80
2019-01-27T14:13:52.797Z,4.70
2019-01-27T14:16:26.094Z,4.80
2019-01-27T14:18:53.811Z,4.70
2019-01-27T14:21:21.919Z,4.60
2019-01-27T14:23:50.967Z,4.60
2019-01-27T14:26:23.533Z,4.50
2019-01-27T14:29:04.032Z,4.60
2019-01-27T14:31:31.657Z,4.60
2019-01-27T14:34:01.892Z,4.60
2019-01-27T14:36:32.749Z,4.50
2019-01-27T14:39:00.474Z,4.40
2019-01-27T14:41:29.115Z,4.40
2019-01-27T14:44:05.054Z,4.40
2019-01-27T14:46:35.468Z,4.40
2019-01-27T14:49:06.066Z,4.40
2019-01-27T14:51:36.514Z,4.40
2019-01-27T14:54:04.733Z,4.40
2019-01-27T14:56:32.559Z,4.30
2019-01-27T14:59:00.250Z,4.30
2019-01-27T15:01:28.015Z,4.30
2019-01-27T15:03:57.170Z,4.30
2019-01-27T15:06:32.818Z,4.30
2019-01-27T15:09:00.833Z,4.20
2019-01-27T15:11:29.574Z,4.20
2019-01-27T15:13:59.925Z,4.20
2019-01-27T15:16:28.442Z,4.20
2019-01-27T15:18:59.223Z,4.20
2019-01-27T15:21:35.059Z,4.10
2019-01-27T15:24:03.351Z,4.10
2019-01-27T15:26:31.415Z,4.10
2019-01-27T15:28:59.564Z,4.10
2019-01-27T15:31:31.616Z,4.10
2019-01-27T15:34:03.393Z,4.10
2019-01-27T15:36:33.321Z,4.10
2019-01-27T15:39:01.045Z,4.10
2019-01-27T15:41:36.233Z,4.10
2019-01-27T15:44:07.149Z,4.10
2019-01-27T15:46:37.379Z,4.00
2019-01-27T15:49:07.908Z,4.10
2019-01-27T15:51:41.029Z,4.10
2019-01-27T15:54:18.434Z,4.10
2019-01-27T15:56:50.646Z,4.10
2019-01-27T15:59:18.634Z,4.10
2019-01-27T16:01:46.781Z,4.10
2019-01-27T16:04:16.295Z,4.10
2019-01-27T16:06:44.039Z,4.10
2019-01-27T16:09:15.824Z,4.10
2019-01-27T16:11:49.145Z,4.10
2019-01-27T16:14:19.410Z,4.10
2019-01-27T16:16:47.071Z,4.10
2019-01-27T16:19:17.412Z,4.20
2019-01-27T16:21:45.183Z,4.20
2019-01-27T16:24:24.276Z,4.20
2019-01-27T16:26:53.803Z,4.20
2019-01-27T16:29:36.725Z,4.20
2019-01-27T16:32:12.189Z,4.20
2019-01-27T16:34:46.770Z,4.30
2019-01-27T16:37:14.649Z,4.20
2019-01-27T16:39:42.759Z,4.20
2019-01-27T16:42:10.630Z,4.20
2019-01-27T16:44:41.511Z,4.30
2019-01-27T16:47:09.451Z,4.30
2019-01-27T16:49:39.293Z,4.30
2019-01-27T16:52:07.527Z,4.30
2019-01-27T16:54:39.218Z,4.30
2019-01-27T16:57:06.915Z,4.30
2019-01-27T16:59:34.796Z,4.30
2019-01-27T17:02:02.956Z,4.30
2019-01-27T17:04:30.891Z,4.30
2019-01-27T17:07:04.953Z,4.40
2019-01-27T17:09:30.027Z,4.40
2019-01-27T17:12:02.159Z,4.40
2019-01-27T17:14:30.134Z,4.40
2019-01-27T17:16:58.214Z,4.50
2019-01-27T17:19:30.334Z,4.40
2019-01-27T17:22:00.086Z,4.40
2019-01-27T17:24:28.268Z,4.40
2019-01-27T17:26:58.544Z,4.50
2019-01-27T17:29:28.885Z,4.40
2019-01-27T17:31:58.159Z,4.40
2019-01-27T17:34:33.020Z,4.30
2019-01-27T17:37:06.646Z,4.30
2019-01-27T17:39:36.057Z,4.30
2019-01-27T17:42:05.632Z,4.20
2019-01-27T17:44:36.013Z,4.20
2019-01-27T17:47:06.884Z,4.20
2019-01-27T17:49:34.783Z,4.20
2019-01-27T17:52:07.391Z,4.20
2019-01-27T17:54:35.126Z,4.20
2019-01-27T17:57:16.512Z,4.20
2019-01-27T17:59:59.623Z,4.20
2019-01-27T18:02:55.887Z,4.10
2019-01-27T18:05:48.887Z,4.10
2019-01-27T18:08:27.599Z,4.10
2019-01-27T18:11:07.230Z,4.10
2019-01-27T18:13:49.430Z,4.10
2019-01-27T18:16:17.223Z,4.10
2019-01-27T18:18:49.838Z,4.10
2019-01-27T18:21:20.943Z,4.10
2019-01-27T18:23:48.678Z,4.10
2019-01-27T18:26:17.416Z,4.10
2019-01-27T18:28:46.246Z,4.10
2019-01-27T18:31:14.858Z,4.10
2019-01-27T18:33:45.301Z,4.10
2019-01-27T18:36:13.280Z,4.10
2019-01-27T18:38:54.436Z,4.10
2019-01-27T18:41:26.778Z,4.10
2019-01-27T18:43:55.772Z,4.10
2019-01-27T18:46:24.731Z,4.10
2019-01-27T18:48:57.445Z,4.10
2019-01-27T18:51:25.101Z,4.10
2019-01-27T18:54:10.803Z,4.10
2019-01-27T18:57:04.384Z,4.10
2019-01-27T19:00:04.172Z,4.10
2019-01-27T19:02:41.686Z,4.10
2019-01-27T19:05:45.382Z,4.10
2019-01-27T19:08:56.690Z,4.10
2019-01-27T19:11:49.112Z,4.10
2019-01-27T19:14:50.185Z,4.10
2019-01-27T19:17:52.123Z,4.10
2019-01-27T19:20:40.160Z,4.10
2019-01-27T19:23:31.877Z,4.10
2019-01-27T19:26:37.139Z,4.20
2019-01-27T19:29:33.434Z,4.20
2019-01-27T19:32:17.613Z,4.10
2019-01-27T19:35:03.172Z,4.10
2019-01-27T19:37:37.474Z,4.10
2019-01-27T19:40:21.359Z,4.10
2019-01-27T19:43:12.318Z,4.10
2019-01-27T19:46:05.322Z,4.00
2019-01-27T19:48:54.410Z,4.00
2019-01-27T19:51:47.432Z,4.00
2019-01-27T19:54:23.379Z,3.90
2019-01-27T19:57:10.885Z,3.90
2019-01-27T19:59:56.769Z,3.90
2019-01-27T20:02:53.282Z,3.90
2019-01-27T20:05:43.326Z,3.90
2019-01-27T20:08:20.906Z,3.90
2019-01-27T20:10:59.134Z,3.90
2019-01-27T20:14:01.408Z,3.90
2019-01-27T20:16:51.976Z,3.90
2019-01-27T20:19:38.068Z,3.80
2019-01-27T20:22:30.987Z,3.70
2019-01-27T20:25:19.710Z,3.70
2019-01-27T20:28:13.795Z,3.60
2019-01-27T20:31:00.946Z,3.50
2019-01-27T20:34:00.054Z,3.50
2019-01-27T20:36:41.529Z,3.40
2019-01-27T20:39:28.742Z,3.30
2019-01-27T20:42:06.717Z,3.20
2019-01-27T20:44:59.607Z,3.10
2019-01-27T20:47:48.377Z,3.10
2019-01-27T20:50:41.329Z,3.10
2019-01-27T20:53:25.345Z,3.10
2019-01-27T20:56:21.708Z,3.00
2019-01-27T20:59:13.059Z,3.10
2019-01-27T21:02:07.527Z,3.10
2019-01-27T21:04:42.502Z,3.00
2019-01-27T21:07:35.247Z,2.90
2019-01-27T21:10:22.799Z,2.80
2019-01-27T21:13:12.570Z,2.90
2019-01-27T21:16:04.778Z,2.80
2019-01-27T21:18:36.609Z,2.80
2019-01-27T21:21:04.657Z,2.50
2019-01-27T21:23:32.730Z,2.50
2019-01-27T21:26:00.490Z,2.50
2019-01-27T21:28:28.357Z,2.40
2019-01-27T21:30:56.138Z,2.40
2019-01-27T21:33:24.296Z,2.30
2019-01-27T21:35:52.077Z,2.30
2019-01-27T21:38:21.220Z,2.30
2019-01-27T21:40:49.102Z,2.30
2019-01-27T21:43:16.924Z,2.30
2019-01-27T21:45:45.066Z,2.30
2019-01-27T21:48:12.709Z,2.40
2019-01-27T21:50:42.888Z,2.30
2019-01-27T21:53:10.759Z,2.30
2019-01-27T21:55:41.831Z,2.30
2019-01-27T21:58:10.949Z,2.30
2019-01-27T22:00:41.347Z,2.20
2019-01-27T22:03:09.026Z,2.30
2019-01-27T22:05:46.985Z,2.30
2019-01-27T22:08:14.886Z,2.40
2019-01-27T22:10:45.494Z,2.30
2019-01-27T22:13:13.225Z,2.40
2019-01-27T22:15:58.518Z,2.30
2019-01-27T22:18:26.144Z,2.40
2019-01-27T22:20:54.174Z,2.40
2019-01-27T22:23:25.615Z,2.40
2019-01-27T22:25:53.686Z,2.50
2019-01-27T22:28:21.289Z,2.40
2019-01-27T22:30:49.332Z,2.40
2019-01-27T22:33:16.933Z,2.40
2019-01-27T22:35:44.834Z,2.40
2019-01-27T22:38:12.466Z,2.50
2019-01-27T22:40:40.118Z,2.40
2019-01-27T22:43:10.712Z,2.40
2019-01-27T22:45:38.781Z,2.40
2019-01-27T22:48:09.670Z,2.50
2019-01-27T22:50:38.133Z,2.50
2019-01-27T22:53:08.266Z,2.50
2019-01-27T22:55:37.366Z,2.50
2019-01-27T22:58:07.940Z,2.40
2019-01-27T23:00:59.012Z,2.40
2019-01-27T23:03:28.850Z,2.40
2019-01-27T23:05:56.640Z,2.30
2019-01-27T23:08:25.680Z,2.30
2019-01-27T23:10:53.801Z,2.30
2019-01-27T23:13:21.550Z,2.30
2019-01-27T23:15:49.094Z,2.30
2019-01-27T23:18:18.373Z,2.20
2019-01-27T23:20:49.790Z,2.10
2019-01-27T23:23:17.644Z,2.10
2019-01-27T23:25:45.730Z,2.00
2019-01-27T23:28:13.441Z,1.90
2019-01-27T23:30:41.340Z,1.90
2019-01-27T23:33:09.558Z,1.90
2019-01-27T23:35:37.231Z,1.80
2019-01-27T23:38:05.167Z,1.70
2019-01-27T23:40:35.048Z,1.80
2019-01-27T23:43:04.834Z,1.80
2019-01-27T23:45:32.533Z,1.70
2019-01-27T23:48:00.245Z,1.70
2019-01-27T23:50:28.623Z,1.80
2019-01-27T23:52:56.489Z,1.80
2019-01-27T23:55:24.127Z,1.80
2019-01-27T23:57:52.133Z,1.80
